sensor_id;sensor_type;location;lat;lon;timestamp;pressure;altitude;pressure_sealevel;temperature;humidity
69751;BME280;57335;52.288;6.056;2024-01-30T00:00:45;102606.22;;;6.14;100.00
69751;BME280;57335;52.288;6.056;2024-01-30T00:03:11;102611.03;;;6.18;100.00
69751;BME280;57335;52.288;6.056;2024-01-30T00:05:38;102616.94;;;6.21;100.00
69751;BME280;57335;52.288;6.056;2024-01-30T00:08:05;102602.97;;;6.22;100.00
69751;BME280;57335;52.288;6.056;2024-01-30T00:10:32;102602.97;;;6.22;100.00
69751;BME280;57335;52.288;6.056;2024-01-30T00:12:58;102609.25;;;6.29;100.00
69751;BME280;57335;52.288;6.056;2024-01-30T00:15:25;102609.25;;;6.29;100.00
69751;BME280;57335;52.288;6.056;2024-01-30T00:17:51;102613.94;;;6.35;100.00
69751;BME280;57335;52.288;6.056;2024-01-30T00:20:20;102619.03;;;6.36;100.00
69751;BME280;57335;52.288;6.056;2024-01-30T00:22:47;102620.53;;;6.39;100.00
69751;BME280;57335;52.288;6.056;2024-01-30T00:25:13;102616.97;;;6.40;100.00
69751;BME280;57335;52.288;6.056;2024-01-30T00:27:40;102618.06;;;6.37;100.00
69751;BME280;57335;52.288;6.056;2024-01-30T00:30:07;102620.13;;;6.34;100.00
69751;BME280;57335;52.288;6.056;2024-01-30T00:32:34;102620.50;;;6.29;100.00
69751;BME280;57335;52.288;6.056;2024-01-30T00:35:01;102621.03;;;6.23;100.00
69751;BME280;57335;52.288;6.056;2024-01-30T00:37:27;102608.84;;;6.14;100.00
69751;BME280;57335;52.288;6.056;2024-01-30T00:39:54;102615.38;;;6.08;100.00
69751;BME280;57335;52.288;6.056;2024-01-30T00:42:20;102613.31;;;6.02;100.00
69751;BME280;57335;52.288;6.056;2024-01-30T00:44:47;102610.16;;;5.98;100.00
69751;BME280;57335;52.288;6.056;2024-01-30T00:47:14;102617.13;;;5.98;100.00
69751;BME280;57335;52.288;6.056;2024-01-30T00:49:40;102610.75;;;5.91;100.00
69751;BME280;57335;52.288;6.056;2024-01-30T00:52:07;102607.59;;;5.87;100.00
69751;BME280;57335;52.288;6.056;2024-01-30T00:54:34;102599.22;;;5.74;100.00
69751;BME280;57335;52.288;6.056;2024-01-30T00:57:00;102613.03;;;5.74;100.00
69751;BME280;57335;52.288;6.056;2024-01-30T00:59:27;102614.88;;;5.63;100.00
69751;BME280;57335;52.288;6.056;2024-01-30T01:01:53;102601.72;;;5.54;100.00
69751;BME280;57335;52.288;6.056;2024-01-30T01:04:20;102612.69;;;5.58;100.00
69751;BME280;57335;52.288;6.056;2024-01-30T01:06:48;102603.50;;;5.54;100.00
69751;BME280;57335;52.288;6.056;2024-01-30T01:09:15;102603.88;;;5.49;100.00
69751;BME280;57335;52.288;6.056;2024-01-30T01:11:42;102596.97;;;5.38;100.00
69751;BME280;57335;52.288;6.056;2024-01-30T01:14:08;102604.69;;;5.29;100.00
69751;BME280;57335;52.288;6.056;2024-01-30T01:16:35;102584.53;;;5.21;100.00
69751;BME280;57335;52.288;6.056;2024-01-30T01:19:01;102595.97;;;5.30;100.00
69751;BME280;57335;52.288;6.056;2024-01-30T01:21:28;102595.91;;;5.20;100.00
69751;BME280;57335;52.288;6.056;2024-01-30T01:23:54;102594.19;;;5.09;100.00
69751;BME280;57335;52.288;6.056;2024-01-30T01:26:21;102596.91;;;5.08;100.00
69751;BME280;57335;52.288;6.056;2024-01-30T01:28:48;102601.16;;;5.09;100.00
69751;BME280;57335;52.288;6.056;2024-01-30T01:31:14;102596.09;;;5.07;100.00
69751;BME280;57335;52.288;6.056;2024-01-30T01:33:41;102590.91;;;5.07;100.00
69751;BME280;57335;52.288;6.056;2024-01-30T01:36:08;102594.91;;;5.11;100.00
69751;BME280;57335;52.288;6.056;2024-01-30T01:38:34;102589.13;;;5.08;100.00
69751;BME280;57335;52.288;6.056;2024-01-30T01:41:01;102596.91;;;5.08;100.00
69751;BME280;57335;52.288;6.056;2024-01-30T01:43:27;102588.16;;;5.09;100.00
69751;BME280;57335;52.288;6.056;2024-01-30T01:45:54;102585.50;;;4.99;100.00
69751;BME280;57335;52.288;6.056;2024-01-30T01:48:21;102584.47;;;4.90;100.00
69751;BME280;57335;52.288;6.056;2024-01-30T01:50:47;102587.19;;;4.89;100.00
69751;BME280;57335;52.288;6.056;2024-01-30T01:53:15;102582.84;;;4.89;100.00
69751;BME280;57335;52.288;6.056;2024-01-30T01:55:43;102583.78;;;4.88;100.00
69751;BME280;57335;52.288;6.056;2024-01-30T01:58:09;102579.78;;;4.84;100.00
69751;BME280;57335;52.288;6.056;2024-01-30T02:00:39;102574.72;;;4.83;100.00
69751;BME280;57335;52.288;6.056;2024-01-30T02:03:10;102577.19;;;4.84;100.00
69751;BME280;57335;52.288;6.056;2024-01-30T02:05:38;102571.88;;;4.86;100.00
69751;BME280;57335;52.288;6.056;2024-01-30T02:08:05;102566.69;;;4.86;100.00
69751;BME280;57335;52.288;6.056;2024-01-30T02:10:32;102564.19;;;4.84;100.00
69751;BME280;57335;52.288;6.056;2024-01-30T02:12:58;102567.88;;;4.82;100.00
69751;BME280;57335;52.288;6.056;2024-01-30T02:15:25;102561.13;;;4.79;100.00
69751;BME280;57335;52.288;6.056;2024-01-30T02:17:51;102549.94;;;4.78;100.00
69751;BME280;57335;52.288;6.056;2024-01-30T02:20:18;102549.63;;;4.72;100.00
69751;BME280;57335;52.288;6.056;2024-01-30T02:22:46;102560.31;;;4.78;100.00
69751;BME280;57335;52.288;6.056;2024-01-30T02:25:13;102553.50;;;4.77;100.00
69751;BME280;57335;52.288;6.056;2024-01-30T02:27:39;102565.97;;;4.84;100.00
69751;BME280;57335;52.288;6.056;2024-01-30T02:30:06;102561.47;;;4.86;100.00
69751;BME280;57335;52.288;6.056;2024-01-30T02:32:33;102560.41;;;4.88;100.00
69751;BME280;57335;52.288;6.056;2024-01-30T02:35:00;102557.56;;;4.91;100.00
69751;BME280;57335;52.288;6.056;2024-01-30T02:37:26;102558.25;;;4.93;100.00
69751;BME280;57335;52.288;6.056;2024-01-30T02:39:53;102552.09;;;4.94;100.00
69751;BME280;57335;52.288;6.056;2024-01-30T02:42:19;102555.28;;;4.98;100.00
69751;BME280;57335;52.288;6.056;2024-01-30T02:44:46;102552.22;;;4.93;100.00
69751;BME280;57335;52.288;6.056;2024-01-30T02:47:13;102552.03;;;5.06;100.00
69751;BME280;57335;52.288;6.056;2024-01-30T02:49:39;102552.63;;;5.09;100.00
69751;BME280;57335;52.288;6.056;2024-01-30T02:52:06;102556.09;;;5.19;100.00
69751;BME280;57335;52.288;6.056;2024-01-30T02:54:32;102544.03;;;5.18;100.00
69751;BME280;57335;52.288;6.056;2024-01-30T02:56:59;102555.00;;;5.22;100.00
69751;BME280;57335;52.288;6.056;2024-01-30T02:59:25;102548.03;;;5.23;100.00
69751;BME280;57335;52.288;6.056;2024-01-30T03:01:52;102539.28;;;5.24;100.00
69751;BME280;57335;52.288;6.056;2024-01-30T03:04:19;102539.03;;;5.27;100.00
69751;BME280;57335;52.288;6.056;2024-01-30T03:06:46;102542.19;;;5.30;100.00
69751;BME280;57335;52.288;6.056;2024-01-30T03:09:16;102538.78;;;5.30;100.00
69751;BME280;57335;52.288;6.056;2024-01-30T03:11:44;102535.09;;;5.32;100.00
69751;BME280;57335;52.288;6.056;2024-01-30T03:14:10;102537.69;;;5.32;100.00
69751;BME280;57335;52.288;6.056;2024-01-30T03:16:37;102530.59;;;5.34;100.00
69751;BME280;57335;52.288;6.056;2024-01-30T03:19:06;102525.13;;;5.37;100.00
69751;BME280;57335;52.288;6.056;2024-01-30T03:21:34;102529.81;;;5.44;100.00
69751;BME280;57335;52.288;6.056;2024-01-30T03:24:01;102530.91;;;5.51;100.00
69751;BME280;57335;52.288;6.056;2024-01-30T03:26:28;102528.78;;;5.56;100.00
69751;BME280;57335;52.288;6.056;2024-01-30T03:28:54;102520.69;;;5.59;100.00
69751;BME280;57335;52.288;6.056;2024-01-30T03:31:21;102522.91;;;5.64;100.00
69751;BME280;57335;52.288;6.056;2024-01-30T03:33:47;102518.25;;;5.67;100.00
69751;BME280;57335;52.288;6.056;2024-01-30T03:36:15;102519.66;;;5.71;100.00
69751;BME280;57335;52.288;6.056;2024-01-30T03:38:42;102525.28;;;5.76;100.00
69751;BME280;57335;52.288;6.056;2024-01-30T03:41:09;102509.41;;;5.79;100.00
69751;BME280;57335;52.288;6.056;2024-01-30T03:43:36;102514.34;;;5.83;100.00
69751;BME280;57335;52.288;6.056;2024-01-30T03:46:03;102508.31;;;5.82;100.00
69751;BME280;57335;52.288;6.056;2024-01-30T03:48:30;102503.53;;;5.77;100.00
69751;BME280;57335;52.288;6.056;2024-01-30T03:50:57;102510.47;;;5.77;100.00
69751;BME280;57335;52.288;6.056;2024-01-30T03:53:23;102495.03;;;5.75;100.00
69751;BME280;57335;52.288;6.056;2024-01-30T03:55:50;102495.16;;;5.74;100.00
69751;BME280;57335;52.288;6.056;2024-01-30T03:58:16;102498.16;;;5.69;100.00
69751;BME280;57335;52.288;6.056;2024-01-30T04:00:43;102495.53;;;5.59;100.00
69751;BME280;57335;52.288;6.056;2024-01-30T04:03:11;102487.56;;;5.51;100.00
69751;BME280;57335;52.288;6.056;2024-01-30T04:05:37;102484.41;;;5.48;100.00
69751;BME280;57335;52.288;6.056;2024-01-30T04:08:04;102479.72;;;5.42;100.00
69751;BME280;57335;52.288;6.056;2024-01-30T04:10:31;102476.03;;;5.44;100.00
69751;BME280;57335;52.288;6.056;2024-01-30T04:12:58;102487.69;;;5.50;100.00
69751;BME280;57335;52.288;6.056;2024-01-30T04:15:24;102482.38;;;5.51;100.00
69751;BME280;57335;52.288;6.056;2024-01-30T04:17:51;102485.13;;;5.59;100.00
69751;BME280;57335;52.288;6.056;2024-01-30T04:20:18;102483.06;;;5.63;100.00
69751;BME280;57335;52.288;6.056;2024-01-30T04:22:45;102477.72;;;5.65;100.00
69751;BME280;57335;52.288;6.056;2024-01-30T04:25:13;102475.44;;;5.71;100.00
69751;BME280;57335;52.288;6.056;2024-01-30T04:27:39;102467.63;;;5.71;100.00
69751;BME280;57335;52.288;6.056;2024-01-30T04:30:06;102483.41;;;5.79;100.00
69751;BME280;57335;52.288;6.056;2024-01-30T04:32:33;102478.44;;;5.76;100.00
69751;BME280;57335;52.288;6.056;2024-01-30T04:35:00;102475.84;;;5.76;100.00
69751;BME280;57335;52.288;6.056;2024-01-30T04:37:27;102470.25;;;5.71;100.00
69751;BME280;57335;52.288;6.056;2024-01-30T04:39:54;102478.44;;;5.76;100.00
69751;BME280;57335;52.288;6.056;2024-01-30T04:42:20;102474.06;;;5.77;100.00
69751;BME280;57335;52.288;6.056;2024-01-30T04:44:47;102484.22;;;5.80;100.00
69751;BME280;57335;52.288;6.056;2024-01-30T04:47:13;102484.09;;;5.82;100.00
69751;BME280;57335;52.288;6.056;2024-01-30T04:49:40;102490.78;;;5.84;100.00
69751;BME280;57335;52.288;6.056;2024-01-30T04:52:08;102493.53;;;5.83;100.00
69751;BME280;57335;52.288;6.056;2024-01-30T04:54:35;102489.97;;;5.84;100.00
69751;BME280;57335;52.288;6.056;2024-01-30T04:57:02;102488.88;;;5.86;100.00
69751;BME280;57335;52.288;6.056;2024-01-30T04:59:29;102492.16;;;5.88;100.00
69751;BME280;57335;52.288;6.056;2024-01-30T05:01:55;102482.16;;;5.84;100.00
69751;BME280;57335;52.288;6.056;2024-01-30T05:04:22;102476.28;;;5.82;100.00
69751;BME280;57335;52.288;6.056;2024-01-30T05:06:49;102473.00;;;5.79;100.00
69751;BME280;57335;52.288;6.056;2024-01-30T05:09:15;102468.47;;;5.82;100.00
69751;BME280;57335;52.288;6.056;2024-01-30T05:11:42;102469.97;;;5.84;100.00
69751;BME280;57335;52.288;6.056;2024-01-30T05:14:09;102473.25;;;5.86;100.00
69751;BME280;57335;52.288;6.056;2024-01-30T05:16:35;102453.41;;;5.85;100.00
69751;BME280;57335;52.288;6.056;2024-01-30T05:19:02;102450.66;;;5.87;100.00
69751;BME280;57335;52.288;6.056;2024-01-30T05:21:29;102448.88;;;5.87;100.00
69751;BME280;57335;52.288;6.056;2024-01-30T05:23:55;102461.50;;;5.92;100.00
69751;BME280;57335;52.288;6.056;2024-01-30T05:26:22;102467.13;;;5.97;100.00
69751;BME280;57335;52.288;6.056;2024-01-30T05:28:49;102462.38;;;6.02;100.00
69751;BME280;57335;52.288;6.056;2024-01-30T05:31:16;102468.81;;;6.08;100.00
69751;BME280;57335;52.288;6.056;2024-01-30T05:33:42;102469.50;;;6.10;100.00
69751;BME280;57335;52.288;6.056;2024-01-30T05:36:12;102462.09;;;6.15;100.00
69751;BME280;57335;52.288;6.056;2024-01-30T05:38:39;102464.56;;;6.16;100.00
69751;BME280;57335;52.288;6.056;2024-01-30T05:41:06;102478.00;;;6.22;100.00
69751;BME280;57335;52.288;6.056;2024-01-30T05:43:33;102470.31;;;6.20;100.00
69751;BME280;57335;52.288;6.056;2024-01-30T05:45:59;102468.97;;;6.26;100.00
69751;BME280;57335;52.288;6.056;2024-01-30T05:48:26;102472.25;;;6.28;100.00
69751;BME280;57335;52.288;6.056;2024-01-30T05:50:53;102472.78;;;6.31;100.00
69751;BME280;57335;52.288;6.056;2024-01-30T05:53:19;102470.31;;;6.30;100.00
69751;BME280;57335;52.288;6.056;2024-01-30T05:55:46;102463.75;;;6.26;100.00
69751;BME280;57335;52.288;6.056;2024-01-30T05:58:12;102462.09;;;6.34;100.00
69751;BME280;57335;52.288;6.056;2024-01-30T06:00:39;102469.78;;;6.36;100.00
69751;BME280;57335;52.288;6.056;2024-01-30T06:03:07;102471.97;;;6.41;100.00
69751;BME280;57335;52.288;6.056;2024-01-30T06:05:33;102456.88;;;6.44;100.00
69751;BME280;57335;52.288;6.056;2024-01-30T06:08:00;102460.84;;;6.48;100.00
69751;BME280;57335;52.288;6.056;2024-01-30T06:10:27;102450.81;;;6.53;100.00
69751;BME280;57335;52.288;6.056;2024-01-30T06:12:53;102457.25;;;6.59;100.00
69751;BME280;57335;52.288;6.056;2024-01-30T06:15:20;102448.22;;;6.63;100.00
69751;BME280;57335;52.288;6.056;2024-01-30T06:17:47;102449.88;;;6.64;100.00
69751;BME280;57335;52.288;6.056;2024-01-30T06:20:13;102439.44;;;6.64;100.00
69751;BME280;57335;52.288;6.056;2024-01-30T06:22:41;102451.38;;;6.67;100.00
69751;BME280;57335;52.288;6.056;2024-01-30T06:25:08;102454.91;;;6.75;100.00
69751;BME280;57335;52.288;6.056;2024-01-30T06:27:34;102462.19;;;6.82;100.00
69751;BME280;57335;52.288;6.056;2024-01-30T06:30:01;102457.66;;;6.84;100.00
69751;BME280;57335;52.288;6.056;2024-01-30T06:32:27;102465.16;;;6.87;100.00
69751;BME280;57335;52.288;6.056;2024-01-30T06:34:55;102459.69;;;6.90;100.00
69751;BME280;57335;52.288;6.056;2024-01-30T06:37:21;102460.38;;;6.92;100.00
69751;BME280;57335;52.288;6.056;2024-01-30T06:39:48;102451.03;;;6.89;100.00
69751;BME280;57335;52.288;6.056;2024-01-30T06:42:15;102450.88;;;6.91;100.00
69751;BME280;57335;52.288;6.056;2024-01-30T06:44:41;102453.22;;;6.94;100.00
69751;BME280;57335;52.288;6.056;2024-01-30T06:47:08;102440.59;;;6.89;100.00
69751;BME280;57335;52.288;6.056;2024-01-30T06:49:34;102463.50;;;6.95;100.00
69751;BME280;57335;52.288;6.056;2024-01-30T06:52:01;102461.97;;;7.03;100.00
69751;BME280;57335;52.288;6.056;2024-01-30T06:54:28;102464.56;;;7.03;100.00
69751;BME280;57335;52.288;6.056;2024-01-30T06:56:54;102467.72;;;7.06;100.00
69751;BME280;57335;52.288;6.056;2024-01-30T06:59:21;102462.50;;;7.06;100.00
69751;BME280;57335;52.288;6.056;2024-01-30T07:01:47;102451.41;;;7.04;100.00
69751;BME280;57335;52.288;6.056;2024-01-30T07:04:14;102450.59;;;7.04;100.00
69751;BME280;57335;52.288;6.056;2024-01-30T07:06:41;102452.91;;;7.07;100.00
69751;BME280;57335;52.288;6.056;2024-01-30T07:09:08;102450.16;;;7.08;100.00
69751;BME280;57335;52.288;6.056;2024-01-30T07:11:35;102444.81;;;7.10;100.00
69751;BME280;57335;52.288;6.056;2024-01-30T07:14:01;102450.41;;;7.15;100.00
69751;BME280;57335;52.288;6.056;2024-01-30T07:16:31;102450.25;;;7.16;100.00
69751;BME280;57335;52.288;6.056;2024-01-30T07:18:57;102456.16;;;7.18;100.00
69751;BME280;57335;52.288;6.056;2024-01-30T07:21:24;102460.25;;;7.21;100.00
69751;BME280;57335;52.288;6.056;2024-01-30T07:23:54;102466.81;;;7.25;100.00
69751;BME280;57335;52.288;6.056;2024-01-30T07:26:21;102468.16;;;7.29;100.00
69751;BME280;57335;52.288;6.056;2024-01-30T07:28:48;102451.84;;;7.27;100.00
69751;BME280;57335;52.288;6.056;2024-01-30T07:31:16;102462.00;;;7.30;100.00
69751;BME280;57335;52.288;6.056;2024-01-30T07:33:43;102466.25;;;7.31;100.00
69751;BME280;57335;52.288;6.056;2024-01-30T07:36:10;102473.78;;;7.34;100.00
69751;BME280;57335;52.288;6.056;2024-01-30T07:38:37;102478.69;;;7.37;100.00
69751;BME280;57335;52.288;6.056;2024-01-30T07:41:03;102476.25;;;7.36;100.00
69751;BME280;57335;52.288;6.056;2024-01-30T07:43:30;102468.13;;;7.39;100.00
69751;BME280;57335;52.288;6.056;2024-01-30T07:45:56;102478.56;;;7.39;100.00
69751;BME280;57335;52.288;6.056;2024-01-30T07:48:23;102473.47;;;7.37;100.00
69751;BME280;57335;52.288;6.056;2024-01-30T07:50:50;102485.72;;;7.37;100.00
69751;BME280;57335;52.288;6.056;2024-01-30T07:53:16;102497.38;;;7.43;100.00
69751;BME280;57335;52.288;6.056;2024-01-30T07:55:43;102473.88;;;7.43;100.00
69751;BME280;57335;52.288;6.056;2024-01-30T07:58:13;102485.00;;;7.45;100.00
69751;BME280;57335;52.288;6.056;2024-01-30T08:00:39;102487.16;;;7.49;100.00
69751;BME280;57335;52.288;6.056;2024-01-30T08:03:06;102471.00;;;7.46;100.00
69751;BME280;57335;52.288;6.056;2024-01-30T08:05:33;102499.03;;;7.62;100.00
69751;BME280;57335;52.288;6.056;2024-01-30T08:08:00;102500.25;;;7.67;100.00
69751;BME280;57335;52.288;6.056;2024-01-30T08:10:26;102501.59;;;7.71;100.00
69751;BME280;57335;52.288;6.056;2024-01-30T08:12:53;102491.56;;;7.76;100.00
69751;BME280;57335;52.288;6.056;2024-01-30T08:15:20;102490.44;;;7.79;100.00
69751;BME280;57335;52.288;6.056;2024-01-30T08:17:46;102503.03;;;7.84;100.00
69751;BME280;57335;52.288;6.056;2024-01-30T08:20:13;102502.47;;;7.90;100.00
69751;BME280;57335;52.288;6.056;2024-01-30T08:22:40;102512.47;;;7.94;100.00
69751;BME280;57335;52.288;6.056;2024-01-30T08:25:07;102502.25;;;8.01;100.00
69751;BME280;57335;52.288;6.056;2024-01-30T08:27:34;102502.47;;;8.08;100.00
69751;BME280;57335;52.288;6.056;2024-01-30T08:30:02;102498.47;;;8.13;100.00
69751;BME280;57335;52.288;6.056;2024-01-30T08:32:29;102501.13;;;8.22;100.00
69751;BME280;57335;52.288;6.056;2024-01-30T08:34:56;102502.88;;;8.31;100.00
69751;BME280;57335;52.288;6.056;2024-01-30T08:37:22;102508.25;;;8.47;100.00
69751;BME280;57335;52.288;6.056;2024-01-30T08:39:49;102510.66;;;8.58;100.00
69751;BME280;57335;52.288;6.056;2024-01-30T08:42:16;102516.13;;;8.73;100.00
69751;BME280;57335;52.288;6.056;2024-01-30T08:44:44;102515.38;;;8.81;100.00
69751;BME280;57335;52.288;6.056;2024-01-30T08:47:11;102506.63;;;8.90;100.00
69751;BME280;57335;52.288;6.056;2024-01-30T08:49:37;102506.53;;;9.00;100.00
69751;BME280;57335;52.288;6.056;2024-01-30T08:52:04;102503.34;;;9.14;100.00
69751;BME280;57335;52.288;6.056;2024-01-30T08:54:31;102511.91;;;9.25;100.00
69751;BME280;57335;52.288;6.056;2024-01-30T08:57:00;102515.34;;;9.33;100.00
69751;BME280;57335;52.288;6.056;2024-01-30T08:59:27;102514.44;;;9.43;100.00
69751;BME280;57335;52.288;6.056;2024-01-30T09:01:54;102509.53;;;9.48;100.00
69751;BME280;57335;52.288;6.056;2024-01-30T09:04:36;102512.19;;;9.56;100.00
69751;BME280;57335;52.288;6.056;2024-01-30T09:07:04;102506.31;;;9.62;100.00
69751;BME280;57335;52.288;6.056;2024-01-30T09:09:32;102505.72;;;9.68;100.00
69751;BME280;57335;52.288;6.056;2024-01-30T09:11:59;102510.31;;;9.74;100.00
69751;BME280;57335;52.288;6.056;2024-01-30T09:14:31;102511.94;;;9.84;100.00
69751;BME280;57335;52.288;6.056;2024-01-30T09:16:57;102509.84;;;9.87;100.00
69751;BME280;57335;52.288;6.056;2024-01-30T09:19:24;102514.13;;;9.96;100.00
69751;BME280;57335;52.288;6.056;2024-01-30T09:21:50;102513.63;;;10.01;100.00
69751;BME280;57335;52.288;6.056;2024-01-30T09:24:17;102513.94;;;10.06;100.00
69751;BME280;57335;52.288;6.056;2024-01-30T09:26:44;102514.47;;;10.10;100.00
69751;BME280;57335;52.288;6.056;2024-01-30T09:29:10;102513.34;;;10.12;100.00
69751;BME280;57335;52.288;6.056;2024-01-30T09:31:37;102516.28;;;10.17;100.00
69751;BME280;57335;52.288;6.056;2024-01-30T09:34:04;102510.72;;;10.21;100.00
69751;BME280;57335;52.288;6.056;2024-01-30T09:36:31;102512.84;;;10.25;100.00
69751;BME280;57335;52.288;6.056;2024-01-30T09:38:58;102512.38;;;10.30;100.00
69751;BME280;57335;52.288;6.056;2024-01-30T09:41:25;102515.00;;;10.38;100.00
69751;BME280;57335;52.288;6.056;2024-01-30T09:43:53;102506.84;;;10.41;100.00
69751;BME280;57335;52.288;6.056;2024-01-30T09:46:21;102522.56;;;10.49;100.00
69751;BME280;57335;52.288;6.056;2024-01-30T09:48:49;102515.50;;;10.50;100.00
69751;BME280;57335;52.288;6.056;2024-01-30T09:51:16;102513.06;;;10.56;100.00
69751;BME280;57335;52.288;6.056;2024-01-30T09:53:44;102513.38;;;10.62;100.00
69751;BME280;57335;52.288;6.056;2024-01-30T09:56:12;102515.66;;;10.73;100.00
69751;BME280;57335;52.288;6.056;2024-01-30T09:58:39;102518.78;;;10.76;100.00
69751;BME280;57335;52.288;6.056;2024-01-30T10:01:06;102512.38;;;10.87;100.00
69751;BME280;57335;52.288;6.056;2024-01-30T10:03:33;102503.03;;;10.93;100.00
69751;BME280;57335;52.288;6.056;2024-01-30T10:06:01;102514.63;;;11.07;100.00
69751;BME280;57335;52.288;6.056;2024-01-30T10:08:27;102519.69;;;11.16;100.00
69751;BME280;57335;52.288;6.056;2024-01-30T10:10:56;102522.94;;;11.27;100.00
69751;BME280;57335;52.288;6.056;2024-01-30T10:13:25;102527.03;;;11.29;100.00
69751;BME280;57335;52.288;6.056;2024-01-30T10:15:53;102525.69;;;11.33;100.00
69751;BME280;57335;52.288;6.056;2024-01-30T10:18:19;102522.44;;;11.31;100.00
69751;BME280;57335;52.288;6.056;2024-01-30T10:20:46;102525.53;;;11.35;100.00
69751;BME280;57335;52.288;6.056;2024-01-30T10:23:16;102529.47;;;11.39;100.00
69751;BME280;57335;52.288;6.056;2024-01-30T10:25:43;102525.66;;;11.42;100.00
69751;BME280;57335;52.288;6.056;2024-01-30T10:28:10;102530.28;;;11.40;100.00
69751;BME280;57335;52.288;6.056;2024-01-30T10:30:36;102526.34;;;11.35;100.00
69751;BME280;57335;52.288;6.056;2024-01-30T10:33:03;102537.81;;;11.34;100.00
69751;BME280;57335;52.288;6.056;2024-01-30T10:35:30;102525.22;;;11.30;100.00
69751;BME280;57335;52.288;6.056;2024-01-30T10:37:57;102523.91;;;11.26;100.00
69751;BME280;57335;52.288;6.056;2024-01-30T10:40:28;102534.09;;;11.29;100.00
69751;BME280;57335;52.288;6.056;2024-01-30T10:42:55;102525.88;;;11.32;100.00
69751;BME280;57335;52.288;6.056;2024-01-30T10:45:23;102527.03;;;11.29;100.00
69751;BME280;57335;52.288;6.056;2024-01-30T10:47:55;102532.75;;;11.33;100.00
69751;BME280;57335;52.288;6.056;2024-01-30T10:50:24;102512.59;;;11.25;100.00
69751;BME280;57335;52.288;6.056;2024-01-30T10:52:52;102523.75;;;11.27;100.00
69751;BME280;57335;52.288;6.056;2024-01-30T10:55:19;102526.38;;;11.27;100.00
69751;BME280;57335;52.288;6.056;2024-01-30T10:57:47;102525.88;;;11.32;100.00
69751;BME280;57335;52.288;6.056;2024-01-30T11:00:14;102538.03;;;11.33;100.00
69751;BME280;57335;52.288;6.056;2024-01-30T11:02:46;102528.50;;;11.32;100.00
69751;BME280;57335;52.288;6.056;2024-01-30T11:05:13;102530.63;;;11.28;100.00
69751;BME280;57335;52.288;6.056;2024-01-30T11:07:42;102525.09;;;11.23;100.00
69751;BME280;57335;52.288;6.056;2024-01-30T11:10:09;102540.66;;;11.25;100.00
69751;BME280;57335;52.288;6.056;2024-01-30T11:12:40;102546.06;;;11.23;100.00
69751;BME280;57335;52.288;6.056;2024-01-30T11:15:13;102548.84;;;11.30;100.00
69751;BME280;57335;52.288;6.056;2024-01-30T11:20:22;102537.63;;;11.44;100.00
69751;BME280;57335;52.288;6.056;2024-01-30T11:22:52;102536.94;;;11.50;100.00
69751;BME280;57335;52.288;6.056;2024-01-30T11:25:21;102541.06;;;11.53;100.00
69751;BME280;57335;52.288;6.056;2024-01-30T11:27:52;102539.72;;;11.57;100.00
69751;BME280;57335;52.288;6.056;2024-01-30T11:30:30;102551.19;;;11.64;100.00
69751;BME280;57335;52.288;6.056;2024-01-30T11:33:09;102549.38;;;11.65;100.00
69751;BME280;57335;52.288;6.056;2024-01-30T11:35:39;102543.13;;;11.66;100.00
69751;BME280;57335;52.288;6.056;2024-01-30T11:38:08;102552.81;;;11.65;100.00
69751;BME280;57335;52.288;6.056;2024-01-30T11:40:36;102544.44;;;11.70;100.00
69751;BME280;57335;52.288;6.056;2024-01-30T11:43:06;102545.25;;;11.70;100.00
69751;BME280;57335;52.288;6.056;2024-01-30T11:45:34;102551.78;;;11.74;100.00
69751;BME280;57335;52.288;6.056;2024-01-30T11:48:01;102530.59;;;11.76;100.00
69751;BME280;57335;52.288;6.056;2024-01-30T11:50:31;102529.59;;;11.85;100.00
69751;BME280;57335;52.288;6.056;2024-01-30T11:52:59;102532.72;;;11.89;100.00
69751;BME280;57335;52.288;6.056;2024-01-30T11:55:26;102528.75;;;11.93;100.00
69751;BME280;57335;52.288;6.056;2024-01-30T11:57:59;102534.78;;;12.02;100.00
69751;BME280;57335;52.288;6.056;2024-01-30T12:00:26;102536.88;;;12.06;100.00
69751;BME280;57335;52.288;6.056;2024-01-30T12:02:54;102532.09;;;12.10;100.00
69751;BME280;57335;52.288;6.056;2024-01-30T12:05:24;102537.19;;;12.11;100.00
69751;BME280;57335;52.288;6.056;2024-01-30T12:07:51;102538.16;;;12.10;100.00
69751;BME280;57335;52.288;6.056;2024-01-30T12:10:18;102537.06;;;12.05;100.00
69751;BME280;57335;52.288;6.056;2024-01-30T12:12:47;102538.22;;;12.02;100.00
69751;BME280;57335;52.288;6.056;2024-01-30T12:15:16;102539.03;;;12.03;100.00
69751;BME280;57335;52.288;6.056;2024-01-30T12:17:43;102537.41;;;12.02;100.00
69751;BME280;57335;52.288;6.056;2024-01-30T12:20:10;102546.41;;;12.07;100.00
69751;BME280;57335;52.288;6.056;2024-01-30T12:22:47;102550.00;;;12.06;100.00
69751;BME280;57335;52.288;6.056;2024-01-30T12:25:18;102542.13;;;12.06;100.00
69751;BME280;57335;52.288;6.056;2024-01-30T12:27:48;102545.44;;;12.00;100.00
69751;BME280;57335;52.288;6.056;2024-01-30T12:30:19;102552.84;;;11.96;100.00
69751;BME280;57335;52.288;6.056;2024-01-30T12:32:50;102567.53;;;11.91;100.00
69751;BME280;57335;52.288;6.056;2024-01-30T12:35:18;102566.38;;;11.85;100.00
69751;BME280;57335;52.288;6.056;2024-01-30T12:37:47;102568.84;;;11.78;100.00
69751;BME280;57335;52.288;6.056;2024-01-30T12:40:14;102575.94;;;11.70;100.00
69751;BME280;57335;52.288;6.056;2024-01-30T12:42:42;102591.88;;;11.68;100.00
69751;BME280;57335;52.288;6.056;2024-01-30T12:45:09;102583.31;;;11.74;100.00
69751;BME280;57335;52.288;6.056;2024-01-30T12:47:36;102580.00;;;11.81;100.00
69751;BME280;57335;52.288;6.056;2024-01-30T12:50:03;102587.88;;;11.89;100.00